Time;durP1;ratioP1;P1;durP2;ratioP2;P2;SDS_P1;SDS_P2;PMS_P1;PMS_P2;Temp;Humidity;BMP_temperature;BMP_pressure;BME280_temperature;BME280_humidity;BME280_pressure;Samples;Min_cycle;Max_cycle;Signal;HPM_P1;HPM_P2
2023/06/26 00:00:53;;;;;;;26.02;24.02;;;22.40;99.90;;;;;;4938505;29;20180;-86
2023/06/26 00:03:19;;;;;;;21.75;19.60;;;22.40;99.90;;;;;;4955384;29;20039;-86
2023/06/26 00:05:44;;;;;;;25.70;23.90;;;22.30;99.90;;;;;;4956898;29;20116;-85
2023/06/26 00:08:10;;;;;;;21.25;19.63;;;22.30;99.90;;;;;;4954414;29;20130;-86
2023/06/26 00:10:36;;;;;;;26.23;23.88;;;22.30;99.90;;;;;;4954379;29;20043;-86
2023/06/26 00:13:02;;;;;;;27.83;25.77;;;22.20;99.90;;;;;;4938125;29;20043;-85
2023/06/26 00:15:31;;;;;;;29.13;27.08;;;22.20;99.90;;;;;;4954363;29;20275;-84
2023/06/26 00:17:57;;;;;;;26.33;24.42;;;22.20;99.90;;;;;;4954333;28;20035;-86
2023/06/26 00:20:24;;;;;;;29.58;27.40;;;22.20;99.90;;;;;;4953664;29;20604;-86
2023/06/26 00:22:50;;;;;;;22.13;20.40;;;22.20;99.90;;;;;;4937432;29;20035;-87
2023/06/26 00:25:16;;;;;;;19.38;17.88;;;22.20;99.90;;;;;;4937169;29;20043;-86
2023/06/26 00:27:42;;;;;;;27.55;25.55;;;22.30;99.90;;;;;;4937183;29;20042;-87
2023/06/26 00:30:08;;;;;;;26.40;24.35;;;22.30;99.90;;;;;;4954663;28;20050;-86
2023/06/26 00:32:34;;;;;;;33.28;30.88;;;22.30;99.90;;;;;;4953882;28;20042;-86
2023/06/26 00:35:00;;;;;;;36.03;33.65;;;22.30;99.90;;;;;;4952185;29;20047;-85
2023/06/26 00:37:26;;;;;;;26.77;24.83;;;22.30;99.90;;;;;;4952747;29;20044;-85
2023/06/26 00:39:51;;;;;;;28.05;26.10;;;22.30;99.90;;;;;;4936982;29;20098;-87
2023/06/26 00:42:17;;;;;;;24.13;22.23;;;22.30;99.90;;;;;;4937064;29;20129;-85
2023/06/26 00:44:43;;;;;;;23.65;21.67;;;22.30;99.90;;;;;;4936628;29;20135;-86
2023/06/26 00:47:11;;;;;;;27.60;25.70;;;22.20;99.90;;;;;;4953351;28;20035;-85
2023/06/26 00:49:37;;;;;;;25.50;23.70;;;22.20;99.90;;;;;;4936426;29;20078;-85
2023/06/26 00:52:03;;;;;;;20.63;18.95;;;22.20;99.90;;;;;;4936097;29;20583;-86
2023/06/26 00:54:29;;;;;;;30.77;28.67;;;22.20;99.90;;;;;;4955572;28;20142;-86
2023/06/26 00:56:54;;;;;;;30.33;28.10;;;22.20;99.90;;;;;;4940795;28;20126;-87
2023/06/26 00:59:20;;;;;;;25.02;23.27;;;22.20;99.90;;;;;;4973962;28;20043;-87
2023/06/26 01:01:46;;;;;;;25.08;23.25;;;22.20;99.90;;;;;;4941996;28;20035;-86
2023/06/26 01:04:17;;;;;;;25.40;23.60;;;22.20;99.90;;;;;;4946212;29;20043;-86
2023/06/26 01:06:48;;;;;;;22.60;20.85;;;22.20;99.90;;;;;;4921577;29;20046;-86
2023/06/26 01:09:17;;;;;;;23.60;21.88;;;22.10;99.90;;;;;;4921006;29;20047;-86
2023/06/26 01:11:43;;;;;;;22.48;20.77;;;22.10;99.90;;;;;;4954729;29;20065;-87
2023/06/26 01:14:08;;;;;;;19.33;17.77;;;22.10;99.90;;;;;;4936949;29;20043;-86
2023/06/26 01:16:35;;;;;;;19.80;18.00;;;22.10;99.90;;;;;;4937124;28;20090;-85
2023/06/26 01:19:02;;;;;;;22.20;20.60;;;22.00;99.90;;;;;;4936089;29;20105;-86
2023/06/26 01:21:32;;;;;;;18.25;16.83;;;22.10;99.90;;;;;;4920317;29;20130;-87
2023/06/26 01:24:20;;;;;;;19.60;18.00;;;22.00;99.90;;;;;;4920057;29;20090;-86
2023/06/26 01:26:48;;;;;;;19.42;17.55;;;21.90;99.90;;;;;;4935856;29;20039;-87
2023/06/26 01:29:16;;;;;;;15.82;13.68;;;21.90;99.90;;;;;;4920057;29;20047;-86
2023/06/26 01:31:43;;;;;;;18.70;17.10;;;21.90;99.90;;;;;;4940500;28;20118;-87
2023/06/26 01:34:09;;;;;;;16.52;15.00;;;21.80;99.90;;;;;;4954179;28;20054;-86
2023/06/26 01:36:35;;;;;;;15.27;13.88;;;21.80;99.90;;;;;;4939258;28;20038;-86
2023/06/26 01:39:01;;;;;;;14.55;13.13;;;21.80;99.90;;;;;;4956021;28;20050;-86
2023/06/26 01:41:26;;;;;;;15.80;14.30;;;21.80;99.90;;;;;;4955949;28;20150;-85
2023/06/26 01:44:11;;;;;;;15.15;13.73;;;21.80;99.90;;;;;;4955978;28;20054;-85
2023/06/26 01:46:51;;;;;;;17.30;15.68;;;21.80;99.90;;;;;;4967522;28;20071;-87
2023/06/26 01:49:52;;;;;;;16.52;15.15;;;21.70;99.90;;;;;;4954990;28;20049;-86
2023/06/26 01:52:28;;;;;;;14.82;13.30;;;21.70;99.90;;;;;;4955586;28;20043;-86
2023/06/26 01:55:07;;;;;;;14.95;13.57;;;21.70;99.90;;;;;;4953866;28;20621;-87
2023/06/26 01:57:36;;;;;;;13.82;12.52;;;21.60;99.90;;;;;;4957628;29;20054;-87
2023/06/26 02:00:02;;;;;;;14.95;13.55;;;21.60;99.90;;;;;;4924671;29;20413;-84
2023/06/26 02:02:29;;;;;;;15.15;13.50;;;21.60;99.90;;;;;;4937461;29;20489;-86
2023/06/26 02:04:55;;;;;;;15.10;13.35;;;21.60;99.90;;;;;;4935828;29;20050;-87
2023/06/26 02:07:20;;;;;;;17.05;15.55;;;21.50;99.90;;;;;;4936022;29;20035;-86
2023/06/26 02:09:46;;;;;;;15.80;14.20;;;21.50;99.90;;;;;;4920550;29;20047;-87
2023/06/26 02:12:12;;;;;;;16.08;14.68;;;21.50;99.90;;;;;;4920468;29;20043;-87
2023/06/26 02:14:38;;;;;;;17.55;15.65;;;21.40;99.90;;;;;;4952928;29;20027;-87
2023/06/26 02:17:04;;;;;;;16.67;15.02;;;21.50;99.90;;;;;;4923411;28;20034;-86
2023/06/26 02:19:29;;;;;;;17.90;16.02;;;21.40;99.90;;;;;;4939139;28;20481;-86
2023/06/26 02:21:55;;;;;;;15.48;14.05;;;21.40;99.90;;;;;;4939335;28;20047;-86
2023/06/26 02:24:21;;;;;;;15.50;14.00;;;21.40;99.90;;;;;;4955087;28;20054;-86
2023/06/26 02:26:47;;;;;;;14.85;13.35;;;21.40;99.90;;;;;;4939314;28;20526;-86
2023/06/26 02:29:12;;;;;;;16.83;15.20;;;21.40;99.90;;;;;;4954928;28;20035;-86
2023/06/26 02:31:38;;;;;;;19.17;16.40;;;21.40;99.90;;;;;;4938510;28;20046;-86
2023/06/26 02:34:04;;;;;;;16.20;14.50;;;21.40;99.90;;;;;;4938310;28;20412;-86
2023/06/26 02:36:30;;;;;;;14.23;12.88;;;21.30;99.90;;;;;;4972425;28;20100;-86
2023/06/26 02:38:55;;;;;;;15.48;14.02;;;21.30;99.90;;;;;;4955584;28;20254;-86
2023/06/26 02:41:21;;;;;;;16.75;15.25;;;21.30;99.90;;;;;;4938592;28;20043;-86
2023/06/26 02:43:47;;;;;;;19.40;17.60;;;21.20;99.90;;;;;;4937941;28;20042;-87
2023/06/26 02:46:12;;;;;;;17.38;15.82;;;21.20;99.90;;;;;;4954365;28;20047;-86
2023/06/26 02:48:38;;;;;;;16.17;14.65;;;21.20;99.90;;;;;;4927120;29;20069;-85
2023/06/26 02:51:04;;;;;;;16.45;14.82;;;21.20;99.90;;;;;;4919354;29;20047;-86
2023/06/26 02:53:31;;;;;;;17.13;15.65;;;21.20;99.90;;;;;;4964164;28;20126;-86
2023/06/26 02:55:56;;;;;;;16.45;14.00;;;21.10;99.90;;;;;;4939881;29;20051;-86
2023/06/26 02:58:22;;;;;;;14.25;12.75;;;21.10;99.90;;;;;;4938174;29;20058;-86
2023/06/26 03:00:48;;;;;;;15.25;13.85;;;21.10;99.90;;;;;;4952180;28;20043;-87
2023/06/26 03:03:14;;;;;;;19.48;15.05;;;21.10;99.90;;;;;;4959339;28;20043;-87
2023/06/26 03:05:39;;;;;;;16.27;14.88;;;21.10;99.90;;;;;;4952256;28;20042;-86
2023/06/26 03:08:05;;;;;;;14.93;13.52;;;21.00;99.90;;;;;;4955558;28;20047;-87
2023/06/26 03:10:31;;;;;;;16.73;15.23;;;21.00;99.90;;;;;;4954960;29;20550;-86
2023/06/26 03:12:56;;;;;;;16.23;14.65;;;21.00;99.90;;;;;;4954426;29;20528;-87
2023/06/26 03:15:22;;;;;;;14.65;13.35;;;21.00;99.90;;;;;;4954773;29;20516;-87
2023/06/26 03:17:47;;;;;;;17.63;16.00;;;21.00;99.90;;;;;;4955449;28;20032;-87
2023/06/26 03:20:13;;;;;;;17.25;15.65;;;21.00;99.90;;;;;;4974287;28;20058;-86
2023/06/26 03:22:39;;;;;;;28.95;17.55;;;21.00;99.90;;;;;;4975007;28;20398;-87
2023/06/26 03:25:05;;;;;;;17.92;16.23;;;21.00;99.90;;;;;;4973876;28;20054;-87
2023/06/26 03:27:30;;;;;;;18.05;16.42;;;21.10;99.90;;;;;;4973813;28;20031;-86
2023/06/26 03:29:56;;;;;;;17.83;16.02;;;21.10;99.90;;;;;;4957332;28;20679;-87
2023/06/26 03:32:22;;;;;;;16.55;14.93;;;21.10;99.90;;;;;;4958534;28;20093;-86
2023/06/26 03:34:47;;;;;;;17.42;15.40;;;21.20;99.90;;;;;;4956474;28;20043;-87
2023/06/26 03:37:13;;;;;;;16.75;15.02;;;21.20;99.90;;;;;;4954034;29;20071;-86
2023/06/26 03:39:39;;;;;;;17.98;16.38;;;21.20;99.90;;;;;;4938036;29;20055;-86
2023/06/26 03:42:05;;;;;;;18.83;16.92;;;21.30;99.90;;;;;;4954182;29;20386;-87
2023/06/26 03:44:30;;;;;;;16.48;14.98;;;21.40;99.90;;;;;;4938958;29;20063;-86
2023/06/26 03:46:56;;;;;;;18.23;16.23;;;21.40;99.90;;;;;;4955730;29;20067;-86
2023/06/26 03:49:22;;;;;;;19.45;17.63;;;21.40;99.90;;;;;;4939288;29;20035;-86
2023/06/26 03:51:47;;;;;;;16.77;14.25;;;21.50;99.90;;;;;;4960656;29;20070;-87
2023/06/26 03:54:13;;;;;;;17.58;15.73;;;21.50;99.90;;;;;;4960397;28;20536;-86
2023/06/26 03:56:39;;;;;;;17.90;16.23;;;21.60;99.90;;;;;;4939559;29;20422;-86
2023/06/26 03:59:04;;;;;;;19.60;17.50;;;21.70;99.90;;;;;;4937836;29;20070;-87
2023/06/26 04:01:30;;;;;;;15.98;13.95;;;21.80;99.90;;;;;;4943034;29;20054;-87
2023/06/26 04:03:56;;;;;;;17.65;14.02;;;21.80;99.90;;;;;;4911218;29;20040;-87
2023/06/26 04:06:22;;;;;;;17.00;15.30;;;21.90;99.90;;;;;;4904394;29;20035;-87
2023/06/26 04:08:48;;;;;;;16.73;14.85;;;21.90;99.90;;;;;;4903476;29;20056;-88
2023/06/26 04:11:13;;;;;;;16.35;14.68;;;22.00;99.90;;;;;;4903153;29;20122;-86
2023/06/26 04:13:39;;;;;;;16.25;14.68;;;22.00;99.90;;;;;;4924711;29;20040;-88
2023/06/26 04:16:06;;;;;;;16.02;14.32;;;22.00;99.90;;;;;;4903792;29;20082;-87
2023/06/26 04:18:32;;;;;;;17.92;16.08;;;22.00;99.90;;;;;;4902897;29;20111;-86
2023/06/26 04:21:27;;;;;;;17.38;15.85;;;22.00;99.90;;;;;;4933686;29;20040;-86
2023/06/26 04:23:52;;;;;;;14.65;13.15;;;22.00;99.90;;;;;;4934001;29;20055;-86
2023/06/26 04:26:18;;;;;;;16.13;14.63;;;22.00;99.90;;;;;;4936160;29;20040;-86
2023/06/26 04:28:44;;;;;;;16.65;15.05;;;22.00;99.90;;;;;;4935794;29;20070;-87
2023/06/26 04:31:10;;;;;;;15.73;14.13;;;21.90;99.90;;;;;;4923598;29;20050;-86
2023/06/26 04:33:37;;;;;;;16.95;13.45;;;22.00;99.90;;;;;;4937004;29;20449;-86
2023/06/26 04:36:04;;;;;;;16.20;13.40;;;22.10;99.90;;;;;;4920795;29;20050;-86
2023/06/26 04:38:30;;;;;;;17.60;15.88;;;22.10;99.90;;;;;;4954242;29;20062;-87
2023/06/26 04:40:56;;;;;;;15.32;13.93;;;22.20;99.90;;;;;;4921448;29;20078;-85
2023/06/26 04:43:22;;;;;;;15.07;11.65;;;22.30;99.90;;;;;;4937309;29;20130;-86
2023/06/26 04:45:47;;;;;;;16.02;14.13;;;22.30;99.90;;;;;;4911441;29;20048;-85
2023/06/26 04:48:13;;;;;;;21.65;14.35;;;22.50;99.90;;;;;;4921177;29;20498;-86
2023/06/26 04:50:40;;;;;;;16.70;15.07;;;22.60;99.90;;;;;;4921465;29;20043;-86
2023/06/26 04:53:05;;;;;;;16.60;14.80;;;22.80;99.90;;;;;;4924612;29;20098;-87
2023/06/26 04:55:31;;;;;;;13.93;12.57;;;23.00;99.90;;;;;;4934138;29;20050;-87
2023/06/26 04:57:57;;;;;;;19.25;16.80;;;23.20;99.90;;;;;;4934020;29;20426;-86
2023/06/26 05:00:24;;;;;;;18.50;15.32;;;23.30;99.90;;;;;;4918889;29;20047;-87
2023/06/26 05:02:58;;;;;;;18.88;15.52;;;23.30;99.90;;;;;;4899510;29;20036;-87
2023/06/26 05:05:25;;;;;;;16.10;14.48;;;23.50;99.90;;;;;;4900174;29;20044;-87
2023/06/26 05:07:54;;;;;;;19.13;15.43;;;23.50;99.90;;;;;;4899504;29;20051;-87
2023/06/26 05:10:19;;;;;;;17.33;15.50;;;23.60;99.90;;;;;;4883452;29;20048;-86
2023/06/26 05:12:45;;;;;;;16.67;14.73;;;23.70;99.90;;;;;;4913966;29;20055;-87
2023/06/26 05:15:11;;;;;;;17.02;15.30;;;23.60;99.90;;;;;;4884288;29;20040;-86
2023/06/26 05:17:36;;;;;;;18.63;16.67;;;23.40;99.90;;;;;;4930060;29;20036;-86
2023/06/26 05:20:03;;;;;;;17.23;13.43;;;23.30;99.90;;;;;;4899783;29;20135;-87
2023/06/26 05:22:29;;;;;;;19.20;16.02;;;23.20;99.90;;;;;;4884147;29;20040;-88
2023/06/26 05:24:57;;;;;;;15.75;14.15;;;23.20;99.90;;;;;;4899995;29;20078;-88
2023/06/26 05:27:23;;;;;;;16.67;12.20;;;23.10;99.90;;;;;;4921635;29;20052;-86
2023/06/26 05:29:49;;;;;;;19.10;14.98;;;23.00;99.90;;;;;;4883269;29;20044;-87
2023/06/26 05:32:19;;;;;;;18.30;15.00;;;23.10;99.90;;;;;;4966056;28;20101;-87
2023/06/26 05:34:49;;;;;;;19.17;17.05;;;23.20;99.90;;;;;;4953046;29;20043;-87
2023/06/26 05:37:24;;;;;;;21.77;15.07;;;23.20;99.90;;;;;;4936247;29;20039;-87
2023/06/26 05:39:50;;;;;;;26.35;16.25;;;23.20;99.90;;;;;;4919958;29;20454;-87
2023/06/26 05:42:16;;;;;;;18.73;14.10;;;23.10;99.90;;;;;;4920178;29;20501;-88
2023/06/26 05:44:42;;;;;;;18.48;15.20;;;22.90;99.90;;;;;;4954112;29;20640;-88
2023/06/26 05:47:08;;;;;;;20.38;14.57;;;22.70;99.90;;;;;;4928032;29;20058;-89
2023/06/26 05:49:33;;;;;;;20.33;16.75;;;22.60;99.90;;;;;;4957814;29;20043;-87
2023/06/26 05:51:59;;;;;;;22.35;15.43;;;22.60;99.90;;;;;;4920877;29;20035;-88
2023/06/26 05:54:25;;;;;;;18.00;13.13;;;22.50;99.90;;;;;;4935524;29;20387;-88
2023/06/26 05:56:59;;;;;;;16.40;13.32;;;22.40;99.90;;;;;;4951642;29;20179;-89
2023/06/26 05:59:26;;;;;;;18.70;13.60;;;22.30;99.90;;;;;;4935517;29;20315;-89
2023/06/26 06:01:52;;;;;;;21.23;11.30;;;22.40;99.90;;;;;;4920650;29;20031;-88
2023/06/26 06:04:18;;;;;;;17.88;11.07;;;22.30;99.90;;;;;;4916099;29;20482;-88
2023/06/26 06:06:43;;;;;;;16.10;10.23;;;22.20;99.90;;;;;;4932388;29;20097;-89
2023/06/26 06:09:09;;;;;;;15.43;8.90;;;22.20;99.90;;;;;;4916517;29;20039;-88
2023/06/26 06:11:35;;;;;;;13.73;9.15;;;22.20;99.90;;;;;;4940165;29;20036;-87
2023/06/26 06:14:00;;;;;;;14.52;8.98;;;22.10;99.90;;;;;;4914128;29;20495;-89
2023/06/26 06:16:28;;;;;;;19.27;10.45;;;22.10;99.90;;;;;;4928436;29;20039;-89
2023/06/26 06:18:54;;;;;;;20.45;11.95;;;22.40;99.90;;;;;;4917128;29;20044;-88
2023/06/26 06:21:20;;;;;;;23.25;21.13;;;22.80;99.90;;;;;;4917262;29;20046;-87
2023/06/26 06:23:46;;;;;;;16.23;12.20;;;23.80;99.90;;;;;;4932527;29;20040;-88
2023/06/26 06:26:12;;;;;;;15.82;11.90;;;24.10;99.90;;;;;;4916825;29;20043;-88
2023/06/26 06:28:39;;;;;;;14.68;11.48;;;24.80;99.90;;;;;;4916837;29;20123;-89
2023/06/26 06:31:04;;;;;;;18.17;16.40;;;25.10;99.90;;;;;;4932608;29;20044;-89
2023/06/26 06:33:30;;;;;;;20.98;18.42;;;25.90;99.90;;;;;;4931723;29;20413;-88
2023/06/26 06:35:56;;;;;;;29.60;27.05;;;26.50;99.90;;;;;;4933210;29;20071;-87
2023/06/26 06:38:22;;;;;;;38.30;35.28;;;27.00;99.90;;;;;;4932079;29;20048;-89
2023/06/26 06:40:47;;;;;;;40.70;37.75;;;26.70;99.80;;;;;;4915897;29;20051;-87
2023/06/26 06:43:13;;;;;;;63.50;59.33;;;26.40;99.90;;;;;;4960788;28;20062;-94
2023/06/26 06:45:39;;;;;;;75.68;70.68;;;26.70;99.90;;;;;;4951310;28;20051;-94
2023/06/26 06:48:05;;;;;;;161.40;150.18;;;27.50;98.70;;;;;;4943891;29;20039;-87
2023/06/26 06:50:31;;;;;;;139.30;130.18;;;28.70;99.40;;;;;;4938368;29;20050;-87
2023/06/26 06:52:56;;;;;;;311.73;289.38;;;29.40;97.30;;;;;;4953491;29;20134;-86
2023/06/26 06:55:23;;;;;;;525.17;485.23;;;30.10;96.80;;;;;;4921791;29;20150;-87
2023/06/26 06:57:50;;;;;;;674.10;618.95;;;30.20;95.50;;;;;;4935309;29;20043;-88
2023/06/26 07:00:16;;;;;;;743.70;680.58;;;30.10;94.30;;;;;;4935958;29;20653;-89
2023/06/26 07:02:45;;;;;;;809.35;740.17;;;29.80;95.40;;;;;;4936582;29;20043;-88
2023/06/26 07:05:12;;;;;;;864.15;789.42;;;29.70;95.00;;;;;;4919833;29;20043;-88
2023/06/26 07:07:38;;;;;;;965.45;874.22;;;30.00;94.80;;;;;;4935299;29;20530;-91
2023/06/26 07:10:08;;;;;;;915.88;834.65;;;30.30;94.70;;;;;;4935515;29;20043;-88
2023/06/26 07:12:34;;;;;;;1056.22;943.88;;;30.70;93.90;;;;;;4951153;29;20039;-88
2023/06/26 07:15:05;;;;;;;1028.22;924.25;;;31.20;93.90;;;;;;4935767;29;20047;-87
2023/06/26 07:17:31;;;;;;;1061.75;951.38;;;31.60;92.80;;;;;;4954862;29;20035;-87
2023/06/26 07:19:57;;;;;;;1158.97;998.72;;;31.30;92.90;;;;;;4938831;29;20508;-88
2023/06/26 07:22:23;;;;;;;1267.65;999.90;;;31.30;92.00;;;;;;4953980;29;20043;-88
2023/06/26 07:24:49;;;;;;;1366.95;999.90;;;31.70;92.30;;;;;;4938956;29;20393;-88
2023/06/26 07:27:15;;;;;;;1437.75;999.90;;;31.60;91.40;;;;;;4938640;29;20126;-88
2023/06/26 07:29:41;;;;;;;1347.13;999.90;;;31.30;91.70;;;;;;4937785;29;20098;-87
2023/06/26 07:32:07;;;;;;;1499.13;999.90;;;31.50;91.90;;;;;;4938802;29;20434;-88
2023/06/26 07:34:33;;;;;;;1497.90;999.90;;;31.50;91.60;;;;;;4938180;29;20094;-87
2023/06/26 07:36:59;;;;;;;1496.32;999.90;;;30.90;92.00;;;;;;4954393;29;20044;-87
2023/06/26 07:39:25;;;;;;;1389.95;999.90;;;30.10;92.60;;;;;;4955168;29;20047;-89
2023/06/26 07:41:50;;;;;;;1376.05;999.90;;;29.70;93.40;;;;;;4959416;29;20047;-87
2023/06/26 07:44:16;;;;;;;1550.13;999.90;;;30.20;93.30;;;;;;4940461;29;20485;-88
2023/06/26 07:46:42;;;;;;;1316.97;999.90;;;30.10;92.40;;;;;;4919980;29;20046;-87
2023/06/26 07:49:07;;;;;;;1212.15;999.70;;;29.20;92.70;;;;;;4919637;29;20402;-88
2023/06/26 07:51:33;;;;;;;1255.07;999.90;;;29.40;93.20;;;;;;4918895;29;20673;-88
2023/06/26 07:53:58;;;;;;;1199.55;999.90;;;29.70;93.30;;;;;;4926830;29;20482;-85
2023/06/26 07:56:25;;;;;;;1411.18;999.90;;;30.70;92.80;;;;;;4902453;29;20104;-87
2023/06/26 07:58:50;;;;;;;1586.78;999.90;;;31.00;91.70;;;;;;4900330;29;20044;-87
2023/06/26 08:01:16;;;;;;;1691.25;999.90;;;31.70;90.90;;;;;;4933576;29;20046;-87
2023/06/26 08:03:42;;;;;;;1796.47;999.90;;;31.60;91.40;;;;;;4921669;29;20054;-87
2023/06/26 08:06:07;;;;;;;1819.65;999.90;;;32.20;91.10;;;;;;4937849;29;20050;-89
2023/06/26 08:08:33;;;;;;;1824.93;999.90;;;31.50;90.80;;;;;;4921541;29;20047;-87
2023/06/26 08:10:59;;;;;;;1505.03;999.90;;;30.20;91.10;;;;;;4922028;29;20077;-86
2023/06/26 08:13:25;;;;;;;1567.70;999.90;;;29.50;92.30;;;;;;4937644;29;20040;-87
2023/06/26 08:15:51;;;;;;;1358.85;999.90;;;29.30;91.80;;;;;;4922950;29;20038;-89
2023/06/26 08:18:18;;;;;;;1420.25;999.90;;;28.90;91.70;;;;;;4904554;29;20036;-93
2023/06/26 08:20:43;;;;;;;1331.22;999.90;;;29.10;92.40;;;;;;4904477;29;20055;-91
2023/06/26 08:23:09;;;;;;;1256.38;999.90;;;29.20;91.80;;;;;;4904948;29;20048;-92
2023/06/26 08:25:35;;;;;;;1105.97;980.22;;;28.50;92.20;;;;;;4904508;29;20044;-92
2023/06/26 08:28:00;;;;;;;1094.35;971.85;;;28.20;92.50;;;;;;4904252;29;20054;-92
2023/06/26 08:30:28;;;;;;;1039.85;932.58;;;28.00;92.90;;;;;;4920466;29;20047;-92
2023/06/26 08:32:56;;;;;;;1091.80;973.33;;;28.40;93.30;;;;;;4930712;29;20043;-93
2023/06/26 08:35:22;;;;;;;1076.43;961.10;;;29.20;92.60;;;;;;4939657;29;20038;-93
2023/06/26 08:37:48;;;;;;;1129.25;989.35;;;29.40;92.00;;;;;;4933355;29;20043;-91
2023/06/26 08:40:17;;;;;;;1071.50;956.47;;;29.60;91.80;;;;;;4935168;29;20054;-92
2023/06/26 08:42:42;;;;;;;1133.32;985.20;;;29.00;91.80;;;;;;4926495;29;20043;-94
2023/06/26 08:45:08;;;;;;;1075.55;959.47;;;28.70;92.30;;;;;;4922950;29;20402;-93
2023/06/26 08:47:35;;;;;;;1082.65;969.78;;;28.40;92.80;;;;;;4918300;29;20151;-94
2023/06/26 08:50:10;;;;;;;1032.45;929.30;;;28.80;92.00;;;;;;4901885;29;20130;-92
2023/06/26 08:52:41;;;;;;;989.33;896.13;;;28.40;92.80;;;;;;4907399;29;20517;-94
2023/06/26 08:55:10;;;;;;;1053.18;944.33;;;28.30;92.20;;;;;;4917436;29;20575;-92
2023/06/26 08:57:36;;;;;;;1011.75;912.35;;;27.80;92.50;;;;;;4918373;29;20038;-92
2023/06/26 09:00:03;;;;;;;1021.38;916.58;;;28.30;93.20;;;;;;4949484;29;20035;-94
2023/06/26 09:02:29;;;;;;;1039.07;931.70;;;29.00;92.90;;;;;;4953344;29;20414;-94
2023/06/26 09:04:55;;;;;;;994.42;900.33;;;28.70;92.50;;;;;;4936774;29;20035;-93
2023/06/26 09:07:21;;;;;;;954.72;866.95;;;28.00;92.00;;;;;;4937292;29;20049;-93
2023/06/26 09:09:47;;;;;;;927.33;843.92;;;27.20;92.90;;;;;;4953299;29;20559;-93
2023/06/26 09:12:13;;;;;;;935.20;849.78;;;26.90;93.10;;;;;;4952861;29;20379;-92
2023/06/26 09:14:40;;;;;;;908.17;824.83;;;27.30;94.10;;;;;;4952589;29;20085;-93
2023/06/26 09:17:06;;;;;;;1019.63;910.78;;;27.90;93.20;;;;;;4938168;29;20101;-93
2023/06/26 09:19:32;;;;;;;913.63;833.65;;;28.10;92.80;;;;;;4954203;29;20133;-95
2023/06/26 09:21:58;;;;;;;916.55;833.80;;;27.80;92.70;;;;;;4938712;29;20181;-94
2023/06/26 09:24:24;;;;;;;891.50;813.28;;;27.50;92.80;;;;;;4938872;29;20043;-92
2023/06/26 09:26:51;;;;;;;897.65;820.60;;;27.30;93.30;;;;;;4938761;29;20182;-92
2023/06/26 09:29:19;;;;;;;928.80;835.58;;;27.60;93.60;;;;;;4940801;29;20113;-94
2023/06/26 09:31:45;;;;;;;893.10;814.63;;;27.80;92.60;;;;;;4920071;29;20415;-93
2023/06/26 09:34:10;;;;;;;906.55;825.78;;;27.90;93.30;;;;;;4935761;29;20043;-92
2023/06/26 09:36:36;;;;;;;928.78;841.53;;;27.90;92.70;;;;;;4934018;29;20035;-93
2023/06/26 09:39:07;;;;;;;969.88;876.85;;;28.10;92.80;;;;;;4943024;29;20100;-92
2023/06/26 09:41:33;;;;;;;1012.10;909.88;;;28.30;92.30;;;;;;4918859;29;20040;-92
2023/06/26 09:44:02;;;;;;;963.13;875.45;;;28.50;92.50;;;;;;4937154;29;20081;-95
2023/06/26 09:46:30;;;;;;;964.28;874.13;;;28.00;91.90;;;;;;4954990;29;20122;-93
2023/06/26 09:49:10;;;;;;;916.92;832.70;;;28.10;92.50;;;;;;4953920;29;20474;-94
2023/06/26 09:51:37;;;;;;;867.25;794.25;;;27.90;92.00;;;;;;4954033;29;20039;-92
2023/06/26 09:54:05;;;;;;;838.22;767.00;;;27.60;91.90;;;;;;4938058;29;20187;-94
2023/06/26 09:56:31;;;;;;;797.60;734.05;;;27.20;92.10;;;;;;4938026;29;20050;-93
2023/06/26 09:58:59;;;;;;;705.55;649.90;;;26.50;92.60;;;;;;4937018;29;20039;-94
2023/06/26 10:01:26;;;;;;;698.17;641.45;;;26.60;92.60;;;;;;4937340;29;20082;-94
2023/06/26 10:03:51;;;;;;;549.22;509.75;;;26.40;92.70;;;;;;4954097;29;20122;-91
2023/06/26 10:06:22;;;;;;;644.33;595.95;;;26.20;93.30;;;;;;4937380;29;20109;-93
2023/06/26 10:08:49;;;;;;;533.95;495.77;;;25.90;93.10;;;;;;4953588;29;20079;-93
2023/06/26 10:11:19;;;;;;;529.03;491.80;;;25.50;93.20;;;;;;4937704;29;20047;-95
2023/06/26 10:13:47;;;;;;;388.73;363.30;;;25.80;94.30;;;;;;4937895;29;20043;-95
2023/06/26 10:16:14;;;;;;;373.05;347.73;;;26.10;93.50;;;;;;4938822;29;20082;-95
2023/06/26 10:18:41;;;;;;;309.08;288.02;;;26.40;93.40;;;;;;4956996;29;20035;-93
2023/06/26 10:21:09;;;;;;;317.35;295.63;;;26.60;93.10;;;;;;4957183;29;20035;-93
2023/06/26 10:23:39;;;;;;;286.13;267.50;;;26.50;92.40;;;;;;4957139;29;20050;-91
2023/06/26 10:26:06;;;;;;;187.85;176.00;;;26.30;92.60;;;;;;4941323;29;20039;-93
2023/06/26 10:28:34;;;;;;;246.15;230.82;;;26.20;92.50;;;;;;4934950;29;20166;-91
2023/06/26 10:31:02;;;;;;;188.60;177.30;;;26.00;92.00;;;;;;4921583;29;20036;-93
2023/06/26 10:33:29;;;;;;;239.55;224.13;;;25.90;92.60;;;;;;4947866;29;20048;-91
2023/06/26 10:36:15;;;;;;;305.75;284.50;;;26.20;93.10;;;;;;4930588;29;20402;-92
2023/06/26 10:38:56;;;;;;;387.63;359.15;;;26.70;92.80;;;;;;4922733;29;20039;-92
2023/06/26 10:41:23;;;;;;;397.27;368.55;;;26.80;92.80;;;;;;4936711;29;20538;-91
2023/06/26 10:44:08;;;;;;;516.30;477.20;;;27.00;92.30;;;;;;4936181;29;20071;-93
2023/06/26 10:46:48;;;;;;;408.60;379.80;;;26.90;92.00;;;;;;4920010;29;20130;-92
2023/06/26 10:49:14;;;;;;;475.80;440.80;;;26.80;91.40;;;;;;4921580;29;20334;-93
2023/06/26 10:51:49;;;;;;;285.33;266.55;;;26.50;91.50;;;;;;4922352;29;20115;-92
2023/06/26 10:54:19;;;;;;;289.30;270.15;;;26.10;90.90;;;;;;4921550;29;20147;-93
2023/06/26 10:56:49;;;;;;;261.02;244.13;;;26.20;91.30;;;;;;4938794;29;20040;-96
2023/06/26 10:59:19;;;;;;;406.92;378.63;;;26.30;91.40;;;;;;4935938;29;20040;-96
2023/06/26 11:01:57;;;;;;;522.08;482.83;;;26.70;91.30;;;;;;4928673;29;20040;-96
2023/06/26 11:04:44;;;;;;;567.65;524.35;;;27.00;91.60;;;;;;4927349;29;20102;-93
2023/06/26 11:07:26;;;;;;;485.65;450.73;;;27.10;91.60;;;;;;4919922;29;20039;-92
2023/06/26 11:10:07;;;;;;;491.77;454.33;;;26.90;91.00;;;;;;4919260;29;20397;-91
2023/06/26 11:12:41;;;;;;;442.25;408.88;;;26.60;91.30;;;;;;4920745;29;20569;-93
2023/06/26 11:15:16;;;;;;;347.17;322.50;;;26.20;91.60;;;;;;4936626;29;20039;-92
2023/06/26 11:17:43;;;;;;;233.07;217.52;;;26.20;92.30;;;;;;4959113;29;20090;-96
2023/06/26 11:20:15;;;;;;;158.98;149.10;;;26.20;91.90;;;;;;4938469;29;20039;-93
2023/06/26 11:22:42;;;;;;;;;;;26.10;91.50;;;;;;4939046;29;20135;-93
2023/06/26 11:25:09;;;;;;;166.73;156.10;;;26.10;91.50;;;;;;4954659;29;19919;-93
2023/06/26 11:27:38;;;;;;;441.13;408.33;;;26.10;91.70;;;;;;4937688;29;20043;-93
2023/06/26 11:30:07;;;;;;;422.70;392.45;;;26.40;92.20;;;;;;4937326;29;20049;-96
2023/06/26 11:32:33;;;;;;;627.10;578.00;;;26.70;91.60;;;;;;4938866;29;20039;-94
2023/06/26 11:34:59;;;;;;;427.75;397.08;;;27.10;91.90;;;;;;4940268;29;20118;-91
2023/06/26 11:37:26;;;;;;;255.90;238.38;;;26.50;90.20;;;;;;4944404;29;20094;-96
2023/06/26 11:39:52;;;;;;;277.52;258.73;;;26.00;90.70;;;;;;4940492;29;20035;-94
2023/06/26 11:42:19;;;;;;;290.38;270.67;;;26.10;91.60;;;;;;4941439;29;20130;-95
2023/06/26 11:44:45;;;;;;;204.70;191.77;;;26.00;91.90;;;;;;4942251;29;20062;-93
2023/06/26 11:47:15;;;;;;;240.18;223.90;;;26.00;91.60;;;;;;4945312;29;20047;-95
2023/06/26 11:49:45;;;;;;;438.98;406.38;;;26.20;92.20;;;;;;4942863;29;20043;-96
2023/06/26 11:52:11;;;;;;;502.17;463.55;;;26.50;91.90;;;;;;4941156;29;20042;-95
2023/06/26 11:54:41;;;;;;;455.13;421.52;;;26.90;91.90;;;;;;4931118;29;20465;-96
2023/06/26 11:57:10;;;;;;;528.67;488.83;;;26.80;91.50;;;;;;4939125;29;20051;-96
2023/06/26 11:59:38;;;;;;;416.70;387.17;;;26.80;91.50;;;;;;4934521;29;20248;-95
2023/06/26 12:02:15;;;;;;;356.23;331.30;;;26.50;91.10;;;;;;4932186;29;20062;-96
2023/06/26 12:04:45;;;;;;;231.80;217.07;;;26.20;91.10;;;;;;4950022;29;20044;-95
2023/06/26 12:07:13;;;;;;;248.57;232.27;;;25.90;91.10;;;;;;4943053;29;20098;-96
2023/06/26 12:09:43;;;;;;;317.67;295.92;;;26.00;91.70;;;;;;4912914;29;20047;-96
2023/06/26 12:12:11;;;;;;;256.60;239.38;;;26.00;91.80;;;;;;4923757;29;20225;-96
2023/06/26 12:14:37;;;;;;;322.85;300.90;;;26.20;91.80;;;;;;4911032;29;20042;-96
2023/06/26 12:19:39;;;;;;;248.18;232.15;;;26.40;91.50;;;;;;5455943;23;20909;-96
2023/06/26 12:22:09;;;;;;;257.13;239.45;;;26.20;90.80;;;;;;5000352;28;20050;-95